createdAt,value
2018-05-11T00:04:03.185Z,23.93
2018-05-11T00:08:59.058Z,23.33
2018-05-11T00:13:54.874Z,24.53
2018-05-11T00:18:50.753Z,24.70
2018-05-11T00:23:46.596Z,24.83
2018-05-11T00:28:42.480Z,25.43
2018-05-11T00:33:38.343Z,26.33
2018-05-11T00:38:34.185Z,25.93
2018-05-11T00:43:30.087Z,25.50
2018-05-11T00:48:25.975Z,26.80
2018-05-11T00:53:21.824Z,25.17
2018-05-11T00:58:17.675Z,26.90
2018-05-11T01:03:13.514Z,28.20
2018-05-11T01:08:09.356Z,27.83
2018-05-11T01:13:05.212Z,28.40
2018-05-11T01:18:01.101Z,28.20
2018-05-11T01:22:57.003Z,28.27
2018-05-11T01:27:52.919Z,28.80
2018-05-11T01:32:48.769Z,28.07
2018-05-11T01:37:44.649Z,28.30
2018-05-11T01:42:40.545Z,31.33
2018-05-11T01:47:36.429Z,30.93
2018-05-11T01:52:32.277Z,30.37
2018-05-11T01:57:28.177Z,31.50
2018-05-11T02:02:24.033Z,30.80
2018-05-11T02:07:19.908Z,31.53
2018-05-11T02:12:15.799Z,29.40
2018-05-11T02:17:11.699Z,30.10
2018-05-11T02:22:07.616Z,29.30
2018-05-11T02:27:03.483Z,31.13
2018-05-11T02:31:59.516Z,30.90
2018-05-11T02:36:55.392Z,30.67
2018-05-11T02:41:51.287Z,29.80
2018-05-11T02:46:47.162Z,30.13
2018-05-11T02:51:43.034Z,29.30
2018-05-11T02:56:38.916Z,29.17
2018-05-11T03:01:34.789Z,29.07
2018-05-11T03:06:30.790Z,29.43
2018-05-11T03:11:26.565Z,30.30
2018-05-11T03:16:22.473Z,29.90
2018-05-11T03:21:19.326Z,31.17
2018-05-11T03:26:15.188Z,31.70
2018-05-11T03:31:11.084Z,31.07
2018-05-11T03:36:07.020Z,32.43
2018-05-11T03:41:02.886Z,31.00
2018-05-11T03:45:58.758Z,32.43
2018-05-11T03:50:54.636Z,31.93
2018-05-11T03:55:50.478Z,32.57
2018-05-11T04:00:46.328Z,33.03
2018-05-11T04:05:48.276Z,32.30
2018-05-11T04:10:44.287Z,31.67
2018-05-11T04:15:40.187Z,33.10
2018-05-11T04:20:36.104Z,32.47
2018-05-11T04:25:31.953Z,31.77
2018-05-11T04:30:27.916Z,33.60
2018-05-11T04:35:23.765Z,33.50
2018-05-11T04:40:19.593Z,31.70
2018-05-11T04:45:15.531Z,32.10
2018-05-11T04:50:11.400Z,32.80
2018-05-11T04:55:07.288Z,32.70
2018-05-11T05:00:03.329Z,31.80
2018-05-11T05:04:59.220Z,32.37
2018-05-11T05:09:55.071Z,32.57
2018-05-11T05:14:50.944Z,38.40
2018-05-11T05:19:46.845Z,33.13
2018-05-11T05:24:42.775Z,32.43
2018-05-11T05:29:38.653Z,31.87
2018-05-11T05:34:34.507Z,32.77
2018-05-11T05:39:30.377Z,32.00
2018-05-11T05:44:26.229Z,31.60
2018-05-11T05:49:22.210Z,30.57
2018-05-11T05:54:18.202Z,32.13
2018-05-11T05:59:14.050Z,32.17
2018-05-11T06:04:09.929Z,30.27
2018-05-11T06:09:05.808Z,31.80
2018-05-11T06:14:01.652Z,31.57
2018-05-11T06:18:57.484Z,30.03
2018-05-11T06:23:53.425Z,30.17
2018-05-11T06:28:49.329Z,30.87
2018-05-11T06:33:45.236Z,29.47
2018-05-11T06:38:48.066Z,29.07
2018-05-11T06:43:43.955Z,29.20
2018-05-11T06:53:42.569Z,28.90
2018-05-11T06:58:38.483Z,29.43
2018-05-11T07:03:34.316Z,30.00
2018-05-11T07:08:30.180Z,30.67
2018-05-11T07:13:26.077Z,27.60
2018-05-11T07:18:21.941Z,34.25
2018-05-11T07:23:17.807Z,30.40
2018-05-11T07:28:13.701Z,30.63
2018-05-11T07:33:09.566Z,32.20
2018-05-11T07:38:05.464Z,33.10
2018-05-11T07:43:01.350Z,33.63
2018-05-11T07:47:57.218Z,31.47
2018-05-11T07:52:53.120Z,35.67
2018-05-11T07:57:48.984Z,35.63
2018-05-11T08:02:44.893Z,34.43
2018-05-11T08:07:40.716Z,35.33
2018-05-11T08:12:36.590Z,34.80
2018-05-11T08:17:32.455Z,37.03
2018-05-11T08:22:28.354Z,35.53
2018-05-11T08:27:24.251Z,36.03
2018-05-11T08:32:20.132Z,34.87
2018-05-11T08:37:16.025Z,34.97
2018-05-11T08:42:11.919Z,37.57
2018-05-11T08:47:07.794Z,35.97
2018-05-11T08:52:03.675Z,37.13
2018-05-11T08:56:59.579Z,35.13
2018-05-11T09:01:55.444Z,36.87
2018-05-11T09:06:51.318Z,36.30
2018-05-11T09:11:47.209Z,38.17
2018-05-11T09:16:43.149Z,36.30
2018-05-11T09:21:39.017Z,36.53
2018-05-11T09:26:34.912Z,37.10
2018-05-11T09:31:30.772Z,34.87
2018-05-11T09:36:26.651Z,35.10
2018-05-11T09:41:22.500Z,31.73
2018-05-11T09:46:18.376Z,33.33
2018-05-11T09:51:14.254Z,31.70
2018-05-11T09:56:10.107Z,33.10
2018-05-11T10:01:05.979Z,31.17
2018-05-11T10:06:01.815Z,31.63
2018-05-11T10:10:57.720Z,30.60
2018-05-11T10:15:53.601Z,29.20
2018-05-11T10:20:49.544Z,28.70
2018-05-11T10:25:45.369Z,27.53
2018-05-11T10:30:41.253Z,27.73
2018-05-11T10:35:37.096Z,26.90
2018-05-11T10:40:32.959Z,28.63
2018-05-11T10:45:28.922Z,25.43
2018-05-11T10:50:24.789Z,26.07
2018-05-11T10:55:20.655Z,25.47
2018-05-11T11:00:16.527Z,23.98
2018-05-11T11:05:12.448Z,26.30
2018-05-11T11:10:08.301Z,25.12
2018-05-11T11:15:04.201Z,25.73
2018-05-11T11:20:00.106Z,22.35
2018-05-11T11:24:55.975Z,24.42
2018-05-11T11:29:51.870Z,23.33
2018-05-11T11:34:47.706Z,24.80
2018-05-11T11:39:43.604Z,26.25
2018-05-11T11:44:39.497Z,23.00
2018-05-11T11:49:35.363Z,22.97
2018-05-11T11:54:31.241Z,24.63
2018-05-11T11:59:27.111Z,24.77
2018-05-11T12:04:22.990Z,23.73
2018-05-11T12:09:19.100Z,23.50
2018-05-11T12:14:15.042Z,21.98
2018-05-11T12:19:10.904Z,22.50
2018-05-11T12:24:06.756Z,22.55
2018-05-11T12:29:02.647Z,23.70
2018-05-11T12:33:58.575Z,21.55
2018-05-11T12:38:54.542Z,19.70
2018-05-11T12:43:50.430Z,20.10
2018-05-11T12:48:46.311Z,19.70
2018-05-11T12:53:42.275Z,19.58
2018-05-11T12:58:38.178Z,19.15
2018-05-11T13:03:34.116Z,21.17
2018-05-11T13:08:29.967Z,19.65
2018-05-11T13:13:25.881Z,19.10
2018-05-11T13:18:21.806Z,18.35
2018-05-11T13:23:17.739Z,17.73
2018-05-11T13:28:13.647Z,17.45
2018-05-11T13:33:09.534Z,15.93
2018-05-11T13:38:05.387Z,15.65
2018-05-11T13:43:01.314Z,16.65
2018-05-11T13:47:57.181Z,15.30
2018-05-11T13:52:53.121Z,17.20
2018-05-11T13:57:49.011Z,16.48
2018-05-11T14:02:44.933Z,14.40
2018-05-11T14:07:40.826Z,16.05
2018-05-11T14:12:36.711Z,14.43
2018-05-11T14:17:32.615Z,16.20
2018-05-11T14:22:28.497Z,15.95
2018-05-11T14:27:24.370Z,15.07
2018-05-11T14:32:20.292Z,12.80
2018-05-11T14:37:16.253Z,12.18
2018-05-11T14:42:12.138Z,11.88
2018-05-11T14:47:08.036Z,11.52
2018-05-11T14:52:03.926Z,10.70
2018-05-11T14:56:59.804Z,10.80
2018-05-11T15:01:55.688Z,9.85
2018-05-11T15:11:54.259Z,11.52
2018-05-11T15:16:50.151Z,10.18
2018-05-11T15:21:46.314Z,10.75
2018-05-11T15:26:42.177Z,11.15
2018-05-11T15:31:38.050Z,9.52
2018-05-11T15:41:44.564Z,14.43
2018-05-11T15:46:40.434Z,10.93
2018-05-11T15:51:36.311Z,11.12
2018-05-11T15:56:32.192Z,12.07
2018-05-11T16:01:28.072Z,10.52
2018-05-11T16:06:24.001Z,10.63
2018-05-11T16:11:19.858Z,11.57
2018-05-11T16:16:15.749Z,10.68
2018-05-11T16:21:11.685Z,10.00
2018-05-11T16:26:07.647Z,10.23
2018-05-11T16:31:03.558Z,10.27
2018-05-11T16:35:59.486Z,9.68
2018-05-11T16:40:55.536Z,9.30
2018-05-11T16:45:51.694Z,9.88
2018-05-11T16:50:47.667Z,10.68
2018-05-11T16:55:43.572Z,10.45
2018-05-11T17:00:39.480Z,10.32
2018-05-11T17:05:35.466Z,10.73
2018-05-11T17:10:31.426Z,9.00
2018-05-11T17:15:27.570Z,8.00
2018-05-11T17:20:23.452Z,8.27
2018-05-11T17:25:19.382Z,7.85
2018-05-11T17:30:15.273Z,14.80
2018-05-11T17:35:11.169Z,12.50
2018-05-11T17:40:07.105Z,10.48
2018-05-11T17:45:03.062Z,11.30
2018-05-11T17:49:58.955Z,9.00
2018-05-11T17:54:54.889Z,8.70
2018-05-11T17:59:50.824Z,9.20
2018-05-11T18:04:46.703Z,9.47
2018-05-11T18:09:42.551Z,9.33
2018-05-11T18:14:38.463Z,9.73
2018-05-11T18:19:34.375Z,12.20
2018-05-11T18:24:30.253Z,11.13
2018-05-11T18:29:26.115Z,12.53
2018-05-11T18:34:21.989Z,10.27
2018-05-11T18:39:17.836Z,10.30
2018-05-11T18:44:13.703Z,10.67
2018-05-11T18:49:09.548Z,10.00
2018-05-11T18:54:05.793Z,10.10
2018-05-11T18:59:01.356Z,10.83
2018-05-11T19:03:57.241Z,10.77
2018-05-11T19:08:53.199Z,11.07
2018-05-11T19:13:49.099Z,11.10
2018-05-11T19:18:44.969Z,12.40
2018-05-11T19:23:40.857Z,11.07
2018-05-11T19:28:36.941Z,11.73
2018-05-11T19:33:32.796Z,13.20
2018-05-11T19:38:28.739Z,14.32
2018-05-11T19:43:24.594Z,13.57
2018-05-11T19:48:20.500Z,13.57
2018-05-11T19:53:16.690Z,13.27
2018-05-11T19:58:12.540Z,15.27
2018-05-11T20:03:08.403Z,15.10
2018-05-11T20:08:04.301Z,16.47
2018-05-11T20:13:00.164Z,15.87
2018-05-11T20:17:56.036Z,16.23
2018-05-11T20:22:51.883Z,16.70
2018-05-11T20:27:47.744Z,17.33
2018-05-11T20:32:43.693Z,17.30
2018-05-11T20:37:39.538Z,18.00
2018-05-11T20:42:35.417Z,18.33
2018-05-11T20:47:31.857Z,18.50
2018-05-11T20:52:27.763Z,17.57
2018-05-11T20:57:23.677Z,16.40
2018-05-11T21:02:19.550Z,15.63
2018-05-11T21:07:15.421Z,17.63
2018-05-11T21:12:11.275Z,18.20
2018-05-11T21:17:07.162Z,16.77
2018-05-11T21:22:03.077Z,17.83
2018-05-11T21:26:59.130Z,17.10
2018-05-11T21:31:55.840Z,16.80
2018-05-11T21:36:51.723Z,16.60
2018-05-11T21:41:47.571Z,17.50
2018-05-11T21:46:43.423Z,21.00
2018-05-11T21:51:39.283Z,20.67
2018-05-11T21:56:35.186Z,22.40
2018-05-11T22:01:31.070Z,23.13
2018-05-11T22:06:26.973Z,23.63
2018-05-11T22:11:22.862Z,24.20
2018-05-11T22:16:18.736Z,26.20
2018-05-11T22:21:14.655Z,23.83
2018-05-11T22:26:10.487Z,24.50
2018-05-11T22:31:06.382Z,24.57
2018-05-11T22:36:02.280Z,24.00
2018-05-11T22:40:58.147Z,22.57
2018-05-11T22:45:54.055Z,24.40
2018-05-11T22:50:49.903Z,23.20
2018-05-11T22:55:45.766Z,22.50
2018-05-11T23:00:41.640Z,22.57
2018-05-11T23:05:37.518Z,22.77
2018-05-11T23:10:33.385Z,20.93
2018-05-11T23:15:29.320Z,23.33
2018-05-11T23:20:25.174Z,22.60
2018-05-11T23:25:21.034Z,23.20
2018-05-11T23:30:16.952Z,23.00
2018-05-11T23:35:12.923Z,24.00
2018-05-11T23:40:08.731Z,21.90
2018-05-11T23:45:04.584Z,23.20
2018-05-11T23:50:00.424Z,24.73
2018-05-11T23:54:56.322Z,24.13
2018-05-11T23:59:52.163Z,25.87
